createdAt,value
2018-11-25T00:00:41.270Z,7.70
2018-11-25T00:03:08.553Z,7.60
2018-11-25T00:05:35.838Z,7.70
2018-11-25T00:08:03.461Z,7.70
2018-11-25T00:10:32.565Z,7.70
2018-11-25T00:12:59.920Z,7.60
2018-11-25T00:15:27.425Z,7.70
2018-11-25T00:17:54.916Z,7.70
2018-11-25T00:20:22.340Z,7.70
2018-11-25T00:22:50.230Z,7.70
2018-11-25T00:25:17.604Z,7.70
2018-11-25T00:27:45.236Z,7.60
2018-11-25T00:30:12.547Z,7.70
2018-11-25T00:32:40.260Z,7.70
2018-11-25T00:35:07.607Z,7.60
2018-11-25T00:37:35.412Z,7.70
2018-11-25T00:40:03.104Z,7.70
2018-11-25T00:42:30.382Z,7.70
2018-11-25T00:44:57.662Z,7.70
2018-11-25T00:47:25.396Z,7.70
2018-11-25T00:49:53.496Z,7.40
2018-11-25T00:52:20.928Z,7.60
2018-11-25T00:54:48.274Z,7.70
2018-11-25T00:57:15.720Z,7.70
2018-11-25T00:59:43.359Z,7.60
2018-11-25T01:02:11.814Z,7.60
2018-11-25T01:04:39.160Z,7.70
2018-11-25T01:07:06.995Z,7.60
2018-11-25T01:09:35.318Z,7.60
2018-11-25T01:12:02.762Z,7.60
2018-11-25T01:14:31.364Z,7.60
2018-11-25T01:16:59.212Z,7.70
2018-11-25T01:19:26.464Z,7.70
2018-11-25T01:21:54.009Z,7.60
2018-11-25T01:24:21.311Z,7.70
2018-11-25T01:26:48.744Z,7.60
2018-11-25T01:29:16.030Z,7.60
2018-11-25T01:31:43.363Z,7.60
2018-11-25T01:34:10.931Z,7.60
2018-11-25T01:36:38.331Z,7.60
2018-11-25T01:39:06.308Z,7.60
2018-11-25T01:41:34.538Z,7.60
2018-11-25T01:44:02.088Z,7.60
2018-11-25T01:46:29.730Z,7.70
2018-11-25T01:48:57.360Z,7.60
2018-11-25T01:51:24.734Z,7.60
2018-11-25T01:53:52.224Z,7.60
2018-11-25T01:56:20.097Z,7.60
2018-11-25T01:58:47.819Z,7.60
2018-11-25T02:01:15.172Z,7.60
2018-11-25T02:03:42.411Z,7.60
2018-11-25T02:06:10.113Z,7.60
2018-11-25T02:08:37.374Z,7.60
2018-11-25T02:11:05.139Z,7.60
2018-11-25T02:13:32.755Z,7.60
2018-11-25T02:16:00.247Z,7.60
2018-11-25T02:18:27.767Z,7.60
2018-11-25T02:20:55.275Z,7.60
2018-11-25T02:23:23.036Z,7.60
2018-11-25T02:25:50.527Z,7.60
2018-11-25T02:28:18.251Z,7.60
2018-11-25T02:30:45.700Z,7.60
2018-11-25T02:33:13.284Z,7.60
2018-11-25T02:35:41.505Z,7.50
2018-11-25T02:38:08.832Z,7.50
2018-11-25T02:40:36.684Z,7.60
2018-11-25T02:43:04.104Z,7.60
2018-11-25T02:45:33.305Z,7.80
2018-11-25T02:48:00.683Z,7.60
2018-11-25T02:50:29.010Z,7.60
2018-11-25T02:52:56.359Z,7.60
2018-11-25T02:55:23.734Z,7.60
2018-11-25T02:57:52.048Z,7.70
2018-11-25T03:00:19.245Z,7.60
2018-11-25T03:02:46.687Z,7.60
2018-11-25T03:05:14.052Z,7.60
2018-11-25T03:07:41.521Z,7.60
2018-11-25T03:10:09.229Z,7.60
2018-11-25T03:12:36.660Z,7.60
2018-11-25T03:15:04.160Z,7.60
2018-11-25T03:17:31.919Z,7.60
2018-11-25T03:19:59.166Z,7.60
2018-11-25T03:22:27.618Z,7.60
2018-11-25T03:24:55.472Z,7.60
2018-11-25T03:27:22.857Z,7.60
2018-11-25T03:29:50.392Z,7.60
2018-11-25T03:32:18.056Z,7.60
2018-11-25T03:34:45.436Z,7.60
2018-11-25T03:37:13.756Z,7.60
2018-11-25T03:39:41.700Z,7.60
2018-11-25T03:42:09.158Z,7.60
2018-11-25T03:44:36.503Z,7.60
2018-11-25T03:47:03.806Z,7.50
2018-11-25T03:49:31.514Z,7.60
2018-11-25T03:51:59.245Z,7.60
2018-11-25T03:54:26.766Z,7.60
2018-11-25T03:56:54.072Z,7.60
2018-11-25T03:59:21.505Z,7.60
2018-11-25T04:01:49.175Z,7.60
2018-11-25T04:04:16.751Z,7.60
2018-11-25T04:06:44.375Z,7.60
2018-11-25T04:09:11.772Z,7.60
2018-11-25T04:11:39.135Z,7.60
2018-11-25T04:14:07.877Z,7.60
2018-11-25T04:16:35.287Z,7.50
2018-11-25T04:19:02.928Z,7.60
2018-11-25T04:21:30.339Z,7.60
2018-11-25T04:23:58.373Z,7.60
2018-11-25T04:26:26.169Z,7.50
2018-11-25T04:28:53.725Z,7.10
2018-11-25T04:31:21.003Z,7.50
2018-11-25T04:33:48.287Z,7.50
2018-11-25T04:36:15.929Z,7.50
2018-11-25T04:38:43.206Z,7.50
2018-11-25T04:41:10.787Z,7.50
2018-11-25T04:43:38.577Z,7.50
2018-11-25T04:46:05.783Z,7.60
2018-11-25T04:48:33.520Z,7.50
2018-11-25T04:51:01.271Z,7.50
2018-11-25T04:53:29.114Z,7.50
2018-11-25T04:55:57.291Z,7.50
2018-11-25T04:58:24.761Z,7.30
2018-11-25T05:00:52.211Z,7.50
2018-11-25T05:03:19.683Z,7.50
2018-11-25T05:05:46.982Z,7.50
2018-11-25T05:08:14.339Z,7.50
2018-11-25T05:10:42.049Z,7.50
2018-11-25T05:13:09.738Z,7.50
2018-11-25T05:15:37.212Z,7.50
2018-11-25T05:18:04.657Z,7.50
2018-11-25T05:20:32.001Z,7.50
2018-11-25T05:22:59.932Z,7.50
2018-11-25T05:25:27.562Z,7.50
2018-11-25T05:27:54.824Z,7.50
2018-11-25T05:30:23.112Z,7.50
2018-11-25T05:32:50.461Z,7.50
2018-11-25T05:35:17.938Z,7.50
2018-11-25T05:37:45.203Z,7.50
2018-11-25T05:40:12.795Z,7.50
2018-11-25T05:42:40.662Z,7.50
2018-11-25T05:45:08.343Z,7.50
2018-11-25T05:47:36.638Z,7.50
2018-11-25T05:50:16.002Z,7.50
2018-11-25T05:52:44.323Z,7.50
2018-11-25T05:55:11.852Z,7.50
2018-11-25T05:57:39.426Z,7.50
2018-11-25T06:00:07.436Z,7.50
2018-11-25T06:02:35.025Z,7.50
2018-11-25T06:05:02.513Z,7.50
2018-11-25T06:07:30.260Z,7.50
2018-11-25T06:09:58.471Z,7.50
2018-11-25T06:12:25.913Z,7.50
2018-11-25T06:14:53.169Z,7.50
2018-11-25T06:17:26.178Z,7.50
2018-11-25T06:19:53.543Z,7.50
2018-11-25T06:22:21.199Z,7.50
2018-11-25T06:24:49.517Z,7.10
2018-11-25T06:27:17.085Z,7.50
2018-11-25T06:29:44.659Z,7.50
2018-11-25T06:32:12.546Z,7.50
2018-11-25T06:34:40.211Z,7.50
2018-11-25T06:37:07.553Z,7.50
2018-11-25T06:39:35.207Z,7.50
2018-11-25T06:42:02.705Z,7.50
2018-11-25T06:44:30.343Z,7.50
2018-11-25T06:46:58.447Z,7.50
2018-11-25T06:49:26.747Z,7.50
2018-11-25T06:51:55.011Z,7.50
2018-11-25T06:54:23.378Z,7.50
2018-11-25T06:56:50.624Z,7.50
2018-11-25T06:59:18.033Z,7.50
2018-11-25T07:01:45.633Z,7.50
2018-11-25T07:04:12.905Z,7.50
2018-11-25T07:06:40.849Z,7.50
2018-11-25T07:09:09.895Z,7.50
2018-11-25T07:11:37.746Z,7.50
2018-11-25T07:14:05.483Z,7.50
2018-11-25T07:16:32.823Z,7.50
2018-11-25T07:19:00.338Z,7.50
2018-11-25T07:21:27.954Z,7.50
2018-11-25T07:23:55.658Z,7.50
2018-11-25T07:26:23.332Z,7.50
2018-11-25T07:28:52.555Z,7.50
2018-11-25T07:31:19.838Z,7.40
2018-11-25T07:33:48.388Z,7.50
2018-11-25T07:36:15.734Z,7.50
2018-11-25T07:38:43.209Z,7.50
2018-11-25T07:41:10.494Z,7.50
2018-11-25T07:43:38.490Z,7.50
2018-11-25T07:46:05.950Z,7.50
2018-11-25T07:48:33.441Z,7.50
2018-11-25T07:51:00.844Z,7.50
2018-11-25T07:53:28.224Z,7.50
2018-11-25T07:55:55.518Z,7.40
2018-11-25T07:58:22.953Z,7.50
2018-11-25T08:00:50.286Z,7.40
2018-11-25T08:03:36.251Z,7.40
2018-11-25T08:06:05.681Z,7.40
2018-11-25T08:08:34.577Z,7.40
2018-11-25T08:11:01.606Z,7.40
2018-11-25T08:13:29.276Z,7.40
2018-11-25T08:15:56.711Z,7.40
2018-11-25T08:18:24.175Z,7.40
2018-11-25T08:20:51.590Z,7.40
2018-11-25T08:23:20.205Z,7.40
2018-11-25T08:25:47.471Z,7.40
2018-11-25T08:28:16.247Z,7.40
2018-11-25T08:30:43.833Z,7.40
2018-11-25T08:33:11.471Z,7.40
2018-11-25T08:35:39.046Z,7.40
2018-11-25T08:38:07.066Z,7.40
2018-11-25T08:40:35.308Z,7.40
2018-11-25T08:43:02.963Z,7.40
2018-11-25T08:45:30.627Z,7.40
2018-11-25T08:47:58.167Z,7.40
2018-11-25T08:50:25.757Z,7.40
2018-11-25T08:52:53.360Z,7.40
2018-11-25T08:55:20.853Z,7.40
2018-11-25T08:57:48.535Z,7.40
2018-11-25T09:00:16.354Z,7.40
2018-11-25T09:02:44.256Z,7.40
2018-11-25T09:05:11.873Z,7.40
2018-11-25T09:07:39.625Z,7.40
2018-11-25T09:10:07.955Z,7.40
2018-11-25T09:12:35.553Z,7.40
2018-11-25T09:15:02.958Z,7.40
2018-11-25T09:17:30.438Z,7.40
2018-11-25T09:19:57.730Z,7.40
2018-11-25T09:22:25.149Z,7.40
2018-11-25T09:24:54.102Z,7.40
2018-11-25T09:27:21.579Z,7.40
2018-11-25T09:29:49.880Z,7.40
2018-11-25T09:32:22.882Z,7.40
2018-11-25T09:34:46.417Z,7.40
2018-11-25T09:37:14.620Z,7.40
2018-11-25T09:39:42.272Z,7.40
2018-11-25T09:42:10.734Z,7.40
2018-11-25T09:44:38.145Z,7.40
2018-11-25T09:47:05.590Z,7.40
2018-11-25T09:49:33.076Z,7.40
2018-11-25T09:52:00.748Z,7.40
2018-11-25T09:54:28.141Z,7.40
2018-11-25T09:56:56.125Z,7.40
2018-11-25T09:59:23.515Z,7.40
2018-11-25T10:01:51.012Z,7.40
2018-11-25T10:04:18.871Z,7.40
2018-11-25T10:06:46.567Z,7.40
2018-11-25T10:09:14.066Z,7.40
2018-11-25T10:11:41.427Z,7.40
2018-11-25T10:14:08.968Z,7.40
2018-11-25T10:16:36.603Z,7.50
2018-11-25T10:19:04.172Z,7.50
2018-11-25T10:21:32.028Z,7.40
2018-11-25T10:23:59.984Z,7.50
2018-11-25T10:26:27.672Z,7.40
2018-11-25T10:28:55.255Z,7.50
2018-11-25T10:31:22.786Z,7.50
2018-11-25T10:33:50.407Z,7.40
2018-11-25T10:36:18.405Z,7.40
2018-11-25T10:38:46.077Z,7.40
2018-11-25T10:41:13.431Z,7.50
2018-11-25T10:43:40.991Z,7.50
2018-11-25T10:46:08.666Z,7.40
2018-11-25T10:48:36.367Z,7.40
2018-11-25T10:51:03.968Z,7.40
2018-11-25T10:53:32.515Z,7.50
2018-11-25T10:55:59.732Z,7.40
2018-11-25T10:58:27.177Z,7.40
2018-11-25T11:00:56.048Z,7.40
2018-11-25T11:03:42.076Z,7.40
2018-11-25T11:06:27.506Z,7.40
2018-11-25T11:08:55.106Z,7.40
2018-11-25T11:11:23.544Z,7.40
2018-11-25T11:13:50.864Z,7.40
2018-11-25T11:16:18.297Z,7.40
2018-11-25T11:18:45.577Z,7.40
2018-11-25T11:21:13.321Z,7.40
2018-11-25T11:23:41.222Z,7.40
2018-11-25T11:26:08.538Z,7.40
2018-11-25T11:28:36.192Z,7.40
2018-11-25T11:31:03.941Z,7.40
2018-11-25T11:33:31.521Z,7.40
2018-11-25T11:35:58.944Z,7.40
2018-11-25T11:38:26.343Z,7.40
2018-11-25T11:40:53.952Z,7.40
2018-11-25T11:43:21.446Z,7.40
2018-11-25T11:45:50.065Z,7.40
2018-11-25T11:48:18.118Z,7.40
2018-11-25T11:50:45.838Z,7.40
2018-11-25T11:53:13.354Z,7.40
2018-11-25T11:55:40.769Z,7.40
2018-11-25T11:58:09.772Z,7.40
2018-11-25T12:00:38.012Z,7.40
2018-11-25T12:03:05.548Z,7.40
2018-11-25T12:05:32.868Z,7.20
2018-11-25T12:08:00.461Z,7.40
2018-11-25T12:10:28.224Z,7.40
2018-11-25T12:12:55.606Z,7.40
2018-11-25T12:15:29.955Z,7.40
2018-11-25T12:17:51.551Z,7.40
2018-11-25T12:20:21.329Z,7.40
2018-11-25T12:22:47.371Z,7.40
2018-11-25T12:25:15.227Z,7.40
2018-11-25T12:27:42.859Z,7.40
2018-11-25T12:30:11.284Z,7.40
2018-11-25T12:32:38.889Z,7.40
2018-11-25T12:35:06.609Z,7.40
2018-11-25T12:37:36.161Z,7.40
2018-11-25T12:40:02.553Z,7.40
2018-11-25T12:42:30.191Z,7.40
2018-11-25T12:44:57.965Z,7.40
2018-11-25T12:47:25.454Z,7.40
2018-11-25T12:49:53.097Z,7.40
2018-11-25T12:52:20.701Z,7.40
2018-11-25T12:54:48.141Z,7.40
2018-11-25T12:57:15.586Z,7.40
2018-11-25T12:59:44.282Z,7.40
2018-11-25T13:02:12.379Z,7.40
2018-11-25T13:04:39.644Z,7.30
2018-11-25T13:07:07.322Z,7.40
2018-11-25T13:09:34.734Z,7.30
2018-11-25T13:12:02.274Z,7.30
2018-11-25T13:14:30.356Z,7.30
2018-11-25T13:16:57.844Z,7.30
2018-11-25T13:19:25.231Z,7.30
2018-11-25T13:21:52.809Z,7.30
2018-11-25T13:24:21.067Z,7.30
2018-11-25T13:26:48.446Z,7.30
2018-11-25T13:29:15.913Z,6.90
2018-11-25T13:31:44.039Z,7.30
2018-11-25T13:34:11.494Z,7.30
2018-11-25T13:36:39.586Z,7.30
2018-11-25T13:39:07.428Z,7.30
2018-11-25T13:41:34.738Z,7.30
2018-11-25T13:44:02.833Z,7.30
2018-11-25T13:46:30.581Z,7.30
2018-11-25T13:48:58.009Z,7.30
2018-11-25T13:51:25.332Z,7.30
2018-11-25T13:53:52.810Z,7.30
2018-11-25T13:56:20.154Z,7.30
2018-11-25T13:58:48.142Z,7.30
2018-11-25T14:01:16.637Z,7.30
2018-11-25T14:03:44.395Z,7.30
2018-11-25T14:06:12.500Z,7.30
2018-11-25T14:08:40.813Z,7.30
2018-11-25T14:11:08.292Z,7.30
2018-11-25T14:13:35.803Z,7.30
2018-11-25T14:16:03.067Z,7.30
2018-11-25T14:18:30.551Z,7.30
2018-11-25T14:20:58.405Z,7.30
2018-11-25T14:23:26.630Z,7.30
2018-11-25T14:25:54.046Z,7.30
2018-11-25T14:28:21.455Z,7.30
2018-11-25T14:30:49.066Z,7.30
2018-11-25T14:33:16.446Z,7.30
2018-11-25T14:35:44.902Z,7.40
2018-11-25T14:38:12.243Z,7.30
2018-11-25T14:40:39.728Z,7.30
2018-11-25T14:43:07.216Z,7.30
2018-11-25T14:45:34.793Z,7.30
2018-11-25T14:48:02.219Z,7.30
2018-11-25T14:50:29.867Z,7.30
2018-11-25T14:52:57.239Z,7.30
2018-11-25T14:55:24.615Z,7.30
2018-11-25T14:57:51.868Z,7.30
2018-11-25T15:00:19.227Z,7.30
2018-11-25T15:02:46.722Z,7.30
2018-11-25T15:05:14.085Z,7.30
2018-11-25T15:07:41.751Z,7.30
2018-11-25T15:10:09.233Z,7.30
2018-11-25T15:12:37.061Z,7.30
2018-11-25T15:15:04.615Z,7.30
2018-11-25T15:17:32.069Z,7.30
2018-11-25T15:20:00.371Z,7.30
2018-11-25T15:22:27.600Z,7.30
2018-11-25T15:24:55.236Z,7.30
2018-11-25T15:27:22.538Z,7.30
2018-11-25T15:29:50.172Z,7.30
2018-11-25T15:32:17.724Z,7.30
2018-11-25T15:34:45.210Z,7.30
2018-11-25T15:37:12.976Z,7.30
2018-11-25T15:39:40.299Z,7.30
2018-11-25T15:42:07.907Z,7.30
2018-11-25T15:44:35.328Z,7.30
2018-11-25T15:47:08.004Z,7.30
2018-11-25T15:49:39.137Z,7.30
2018-11-25T15:52:06.642Z,7.30
2018-11-25T15:54:34.352Z,7.30
2018-11-25T15:57:01.803Z,7.30
2018-11-25T15:59:29.388Z,7.30
2018-11-25T16:01:56.861Z,7.30
2018-11-25T16:04:24.517Z,7.30
2018-11-25T16:06:51.877Z,7.30
2018-11-25T16:09:19.572Z,7.30
2018-11-25T16:11:46.979Z,7.30
2018-11-25T16:14:14.726Z,7.20
2018-11-25T16:16:42.179Z,7.30
2018-11-25T16:19:09.888Z,7.30
2018-11-25T16:21:37.358Z,7.20
2018-11-25T16:24:04.729Z,7.20
2018-11-25T16:26:32.155Z,7.30
2018-11-25T16:28:59.783Z,7.30
2018-11-25T16:31:27.193Z,7.20
2018-11-25T16:33:54.918Z,7.20
2018-11-25T16:36:22.370Z,7.20
2018-11-25T16:38:49.805Z,7.20
2018-11-25T16:41:17.428Z,7.20
2018-11-25T16:43:44.940Z,7.20
2018-11-25T16:46:13.221Z,7.30
2018-11-25T16:48:40.628Z,7.20
2018-11-25T16:51:08.077Z,7.20
2018-11-25T16:53:35.603Z,7.20
2018-11-25T16:56:03.287Z,7.20
2018-11-25T16:58:30.781Z,7.20
2018-11-25T17:00:58.262Z,7.20
2018-11-25T17:03:26.015Z,7.20
2018-11-25T17:05:53.502Z,7.20
2018-11-25T17:08:22.035Z,7.20
2018-11-25T17:10:49.177Z,7.20
2018-11-25T17:13:16.907Z,7.20
2018-11-25T17:15:44.386Z,7.20
2018-11-25T17:18:11.947Z,7.20
2018-11-25T17:20:39.480Z,7.20
2018-11-25T17:23:07.846Z,7.20
2018-11-25T17:25:35.180Z,7.20
2018-11-25T17:28:03.184Z,7.20
2018-11-25T17:30:30.488Z,7.20
2018-11-25T17:32:57.880Z,7.20
2018-11-25T17:35:25.674Z,7.20
2018-11-25T17:37:53.149Z,7.20
2018-11-25T17:40:20.794Z,7.20
2018-11-25T17:42:48.173Z,7.20
2018-11-25T17:45:16.260Z,7.20
2018-11-25T17:47:43.914Z,7.20
2018-11-25T17:50:11.406Z,7.00
2018-11-25T17:52:39.008Z,7.20
2018-11-25T17:55:06.664Z,7.20
2018-11-25T17:57:35.082Z,7.20
2018-11-25T18:00:02.321Z,7.20
2018-11-25T18:02:29.942Z,7.20
2018-11-25T18:04:57.214Z,7.20
2018-11-25T18:07:24.978Z,7.20
2018-11-25T18:09:52.330Z,7.20
2018-11-25T18:12:19.694Z,7.20
2018-11-25T18:14:47.313Z,7.20
2018-11-25T18:17:14.957Z,7.20
2018-11-25T18:19:42.461Z,7.20
2018-11-25T18:22:09.925Z,7.20
2018-11-25T18:24:37.483Z,7.20
2018-11-25T18:27:05.597Z,7.20
2018-11-25T18:29:32.933Z,7.20
2018-11-25T18:32:00.717Z,7.20
2018-11-25T18:34:28.239Z,7.20
2018-11-25T18:36:56.311Z,7.20
2018-11-25T18:39:25.056Z,7.20
2018-11-25T18:41:52.571Z,7.20
2018-11-25T18:44:20.119Z,7.20
2018-11-25T18:46:48.419Z,7.20
2018-11-25T18:49:15.986Z,7.20
2018-11-25T18:51:43.525Z,7.20
2018-11-25T18:54:11.089Z,7.20
2018-11-25T18:56:38.551Z,7.20
2018-11-25T18:59:05.941Z,7.20
2018-11-25T19:01:33.562Z,7.20
2018-11-25T19:04:01.036Z,7.20
2018-11-25T19:06:28.419Z,7.20
2018-11-25T19:08:55.953Z,7.20
2018-11-25T19:11:23.477Z,7.20
2018-11-25T19:13:51.611Z,7.20
2018-11-25T19:16:19.052Z,7.20
2018-11-25T19:18:46.762Z,7.20
2018-11-25T19:21:15.976Z,7.20
2018-11-25T19:23:43.885Z,7.20
2018-11-25T19:26:11.341Z,7.20
2018-11-25T19:28:38.959Z,7.20
2018-11-25T19:31:08.064Z,7.20
2018-11-25T19:33:36.302Z,7.20
2018-11-25T19:36:04.198Z,7.20
2018-11-25T19:38:31.484Z,7.20
2018-11-25T19:40:58.962Z,7.20
2018-11-25T19:43:26.437Z,7.20
2018-11-25T19:45:53.702Z,7.20
2018-11-25T19:48:21.404Z,7.20
2018-11-25T19:50:49.210Z,7.20
2018-11-25T19:53:16.704Z,7.20
2018-11-25T19:55:44.176Z,7.20
2018-11-25T19:58:12.689Z,7.20
2018-11-25T20:00:41.486Z,7.20
2018-11-25T20:03:08.926Z,7.20
2018-11-25T20:05:36.222Z,7.20
2018-11-25T20:08:03.619Z,7.20
2018-11-25T20:10:31.580Z,7.20
2018-11-25T20:12:58.960Z,7.20
2018-11-25T20:15:26.652Z,7.20
2018-11-25T20:17:54.760Z,7.20
2018-11-25T20:20:23.478Z,7.20
2018-11-25T20:22:51.418Z,7.20
2018-11-25T20:25:19.412Z,7.20
2018-11-25T20:27:51.325Z,7.20
2018-11-25T20:30:18.992Z,7.20
2018-11-25T20:33:04.545Z,7.20
2018-11-25T20:35:32.446Z,7.20
2018-11-25T20:38:17.785Z,7.20
2018-11-25T20:40:45.527Z,7.20
2018-11-25T20:43:13.084Z,7.20
2018-11-25T20:45:58.035Z,7.20
2018-11-25T20:48:25.859Z,7.20
2018-11-25T20:50:53.259Z,7.10
2018-11-25T20:53:38.515Z,7.20
2018-11-25T20:56:06.202Z,7.20
2018-11-25T20:58:33.621Z,7.20
2018-11-25T21:01:01.260Z,7.20
2018-11-25T21:03:28.673Z,7.20
2018-11-25T21:05:57.281Z,7.20
2018-11-25T21:08:25.023Z,7.20
2018-11-25T21:10:52.353Z,7.20
2018-11-25T21:13:19.771Z,7.20
2018-11-25T21:15:47.331Z,7.20
2018-11-25T21:18:15.559Z,7.20
2018-11-25T21:20:50.846Z,7.20
2018-11-25T21:23:11.180Z,7.20
2018-11-25T21:25:38.799Z,7.20
2018-11-25T21:28:11.285Z,7.20
2018-11-25T21:30:38.827Z,7.20
2018-11-25T21:33:06.398Z,7.20
2018-11-25T21:35:33.762Z,7.20
2018-11-25T21:38:01.097Z,7.20
2018-11-25T21:40:28.983Z,7.20
2018-11-25T21:42:56.730Z,7.20
2018-11-25T21:45:24.258Z,7.20
2018-11-25T21:47:52.206Z,7.20
2018-11-25T21:50:19.901Z,7.20
2018-11-25T21:52:47.335Z,7.20
2018-11-25T21:55:15.158Z,7.20
2018-11-25T21:57:42.489Z,7.20
2018-11-25T22:00:10.079Z,7.20
2018-11-25T22:02:37.982Z,7.20
2018-11-25T22:05:05.530Z,7.20
2018-11-25T22:07:33.291Z,7.20
2018-11-25T22:10:00.726Z,7.20
2018-11-25T22:12:28.320Z,7.20
2018-11-25T22:14:56.774Z,7.20
2018-11-25T22:17:25.463Z,7.20
2018-11-25T22:19:53.545Z,7.20
2018-11-25T22:22:21.706Z,7.20
2018-11-25T22:24:49.870Z,7.20
2018-11-25T22:27:18.673Z,7.20
2018-11-25T22:29:46.888Z,7.20
2018-11-25T22:32:15.198Z,7.20
2018-11-25T22:34:44.285Z,7.20
2018-11-25T22:37:12.613Z,7.20
2018-11-25T22:39:40.139Z,7.20
2018-11-25T22:42:07.906Z,7.20
2018-11-25T22:44:35.676Z,7.20
2018-11-25T22:47:03.048Z,7.20
2018-11-25T22:49:30.715Z,7.20
2018-11-25T22:51:58.167Z,7.20
2018-11-25T22:54:25.487Z,7.20
2018-11-25T22:56:54.502Z,7.20
2018-11-25T22:59:22.299Z,7.20
2018-11-25T23:01:49.601Z,7.20
2018-11-25T23:04:17.096Z,7.20
2018-11-25T23:06:45.204Z,7.20
2018-11-25T23:09:12.573Z,7.20
2018-11-25T23:11:39.950Z,7.20
2018-11-25T23:14:07.578Z,7.20
2018-11-25T23:16:34.992Z,6.90
2018-11-25T23:19:02.367Z,7.20
2018-11-25T23:21:29.893Z,7.20
2018-11-25T23:23:57.260Z,7.20
2018-11-25T23:26:24.835Z,7.20
2018-11-25T23:28:52.131Z,7.20
2018-11-25T23:31:19.779Z,7.20
2018-11-25T23:33:47.220Z,7.20
2018-11-25T23:36:14.457Z,7.20
2018-11-25T23:38:42.168Z,7.20
2018-11-25T23:41:10.066Z,7.20
2018-11-25T23:43:37.558Z,7.20
2018-11-25T23:46:05.142Z,7.20
2018-11-25T23:48:32.787Z,7.20
2018-11-25T23:51:00.173Z,7.20
2018-11-25T23:53:27.885Z,7.20
2018-11-25T23:55:55.546Z,7.20
2018-11-25T23:58:23.187Z,7.20
